Time;durP1;ratioP1;P1;durP2;ratioP2;P2;SDS_P1;SDS_P2;PMS_P1;PMS_P2;Temp;Humidity;BMP_temperature;BMP_pressure;BME280_temperature;BME280_humidity;BME280_pressure;Samples;Min_cycle;Max_cycle;Signal;HPM_P1;HPM_P2
2022/01/24 00:01:33;;;;;;;11.32;4.40;;;-2.10;99.90;;;;;;4987952;28;20595;-78
2022/01/24 00:03:59;;;;;;;12.43;5.00;;;-1.80;99.90;;;;;;4977134;28;20109;-77
2022/01/24 00:06:25;;;;;;;13.75;4.43;;;-2.20;99.90;;;;;;4980391;28;20030;-79
2022/01/24 00:08:51;;;;;;;8.82;4.07;;;-1.40;99.90;;;;;;4977937;28;20276;-77
2022/01/24 00:11:21;;;;;;;8.52;4.65;;;-3.20;99.90;;;;;;4972808;28;20277;-76
2022/01/24 00:27:00;;;;;;;7.93;3.70;;;-2.70;99.90;;;;;;4983752;28;20092;-77
2022/01/24 00:29:26;;;;;;;9.60;3.78;;;-3.40;99.90;;;;;;4984557;28;20486;-77
2022/01/24 00:31:55;;;;;;;11.82;5.07;;;-1.90;99.90;;;;;;4972408;28;20049;-77
2022/01/24 00:34:25;;;;;;;8.85;4.38;;;-1.90;99.90;;;;;;4983489;28;20018;-76
2022/01/24 00:36:52;;;;;;;10.43;3.83;;;-3.20;99.90;;;;;;4974327;28;20137;-76
2022/01/24 00:39:19;;;;;;;8.20;3.95;;;-0.60;99.90;;;;;;4977719;28;20061;-79
2022/01/24 00:42:00;;;;;;;9.82;4.13;;;-1.40;99.90;;;;;;4984745;28;20019;-78
2022/01/24 00:44:48;;;;;;;10.25;4.03;;;-2.20;99.90;;;;;;4979134;28;20125;-77
2022/01/24 00:47:26;;;;;;;9.38;4.75;;;-1.70;99.90;;;;;;4973235;28;20015;-77
2022/01/24 00:55:06;;;;;;;10.68;3.55;;;-1.40;99.90;;;;;;4986943;28;20181;-78
2022/01/24 00:57:35;;;;;;;7.53;4.60;;;-3.40;99.90;;;;;;4993402;28;20456;-80
2022/01/24 01:00:01;;;;;;;5.75;3.97;;;-2.30;99.90;;;;;;4993656;28;20054;-77
2022/01/24 01:02:27;;;;;;;7.93;4.80;;;-3.40;99.90;;;;;;4994395;28;20030;-77
2022/01/24 01:05:14;;;;;;;8.85;4.28;;;-3.40;99.90;;;;;;4994642;28;20102;-80
2022/01/24 01:07:54;;;;;;;9.55;4.43;;;-1.80;99.90;;;;;;4976986;28;20058;-78
2022/01/24 01:18:44;;;;;;;10.18;5.25;;;-2.00;99.90;;;;;;4994107;28;20096;-78
2022/01/24 01:21:11;;;;;;;10.48;4.72;;;-2.20;99.90;;;;;;4994525;28;20034;-79
2022/01/24 01:23:42;;;;;;;12.88;4.43;;;-1.50;99.90;;;;;;4994121;28;20050;-77
2022/01/24 01:26:19;;;;;;;9.75;4.28;;;-2.70;99.90;;;;;;4994063;28;20050;-78
2022/01/24 01:28:49;;;;;;;12.50;4.47;;;-2.30;99.90;;;;;;4993670;28;20389;-86
2022/01/24 01:31:29;;;;;;;14.15;4.53;;;-2.60;99.90;;;;;;4975804;28;20054;-82
2022/01/24 01:55:25;;;;;;;75.10;22.00;;;-3.00;99.90;;;;;;4994209;28;20026;-77
2022/01/24 01:57:51;;;;;;;77.32;23.33;;;-3.20;99.90;;;;;;4992393;28;20032;-78
2022/01/24 02:00:17;;;;;;;66.70;21.83;;;-2.60;99.90;;;;;;4992952;28;20022;-77
2022/01/24 02:02:43;;;;;;;57.03;18.38;;;-3.60;99.90;;;;;;4991309;28;20267;-78
2022/01/24 02:05:09;;;;;;;54.13;15.25;;;-3.60;99.90;;;;;;4975147;28;20022;-77
2022/01/24 02:07:46;;;;;;;44.53;13.77;;;-3.70;99.90;;;;;;4993064;28;20042;-78
2022/01/24 02:10:11;;;;;;;34.88;9.68;;;-3.80;99.90;;;;;;4993215;28;20054;-77
2022/01/24 02:12:37;;;;;;;29.15;11.18;;;-3.30;99.90;;;;;;4975147;28;20069;-77
2022/01/24 02:15:04;;;;;;;24.67;8.07;;;-3.20;99.90;;;;;;4992186;28;20073;-76
2022/01/24 02:17:43;;;;;;;22.88;9.50;;;-2.90;99.90;;;;;;4992209;28;20101;-77
2022/01/24 02:20:39;;;;;;;28.35;8.98;;;-1.60;99.90;;;;;;4975573;28;20026;-77
2022/01/24 02:23:31;;;;;;;26.35;7.72;;;-3.00;99.90;;;;;;4992299;28;20030;-77
2022/01/24 02:26:00;;;;;;;19.95;7.75;;;-2.80;99.90;;;;;;4975091;28;20643;-77
2022/01/24 02:28:32;;;;;;;23.13;6.75;;;-3.30;99.90;;;;;;4974927;28;20030;-78
2022/01/24 02:31:20;;;;;;;19.40;8.35;;;-3.50;99.90;;;;;;4992586;28;20027;-78
2022/01/24 02:33:47;;;;;;;14.02;6.35;;;-3.70;99.90;;;;;;4992435;28;20551;-77
2022/01/24 02:36:22;;;;;;;24.27;8.43;;;-3.90;99.90;;;;;;4974747;28;20046;-78
2022/01/24 02:49:37;;;;;;;27.60;9.38;;;-3.60;99.90;;;;;;4991754;28;20018;-77
2022/01/24 02:52:12;;;;;;;23.05;8.00;;;-3.50;99.90;;;;;;4992203;28;20031;-77
2022/01/24 02:54:39;;;;;;;14.43;8.07;;;-3.40;99.90;;;;;;4991524;28;20605;-80
2022/01/24 02:57:07;;;;;;;20.25;6.80;;;-3.40;99.90;;;;;;4991922;28;20038;-77
2022/01/24 02:59:33;;;;;;;16.67;6.38;;;-3.40;99.90;;;;;;4973860;28;20027;-77
2022/01/24 03:01:59;;;;;;;21.65;7.20;;;-2.70;99.90;;;;;;4973713;28;20045;-76
2022/01/24 03:04:25;;;;;;;16.67;7.78;;;-2.70;99.90;;;;;;4992285;28;20019;-79
2022/01/24 03:06:51;;;;;;;18.95;7.78;;;-3.60;99.90;;;;;;4974176;28;20100;-77
2022/01/24 03:09:21;;;;;;;19.83;6.40;;;-3.80;99.90;;;;;;4991988;28;20069;-77
2022/01/24 03:14:16;;;;;;;18.25;7.10;;;-4.00;99.90;;;;;;4990899;28;20018;-77
2022/01/24 03:16:42;;;;;;;14.88;7.70;;;-3.40;99.90;;;;;;4990213;28;20073;-80
2022/01/24 03:19:08;;;;;;;16.05;6.60;;;-2.10;99.90;;;;;;4992007;28;20054;-77
2022/01/24 03:21:33;;;;;;;13.68;5.13;;;-2.10;99.90;;;;;;4992372;28;20186;-78
2022/01/24 03:23:59;;;;;;;14.70;8.10;;;-2.00;99.90;;;;;;4991239;28;20033;-79
2022/01/24 03:26:25;;;;;;;16.77;7.03;;;-2.40;99.90;;;;;;4973652;28;20034;-78
2022/01/24 03:28:51;;;;;;;14.13;4.63;;;-2.90;99.90;;;;;;4973943;28;20105;-81
2022/01/24 03:31:16;;;;;;;11.27;5.30;;;-1.90;99.90;;;;;;4991272;28;20034;-77
2022/01/24 03:33:42;;;;;;;13.85;5.43;;;-1.60;99.90;;;;;;4991588;28;20028;-78
2022/01/24 03:36:09;;;;;;;14.57;5.03;;;-1.70;99.90;;;;;;4991733;28;20403;-78
2022/01/24 03:38:34;;;;;;;19.88;6.93;;;-1.90;99.90;;;;;;4991390;28;20574;-76
2022/01/24 03:41:02;;;;;;;12.88;5.75;;;-3.00;99.90;;;;;;4991895;28;20042;-77
2022/01/24 03:43:28;;;;;;;10.45;5.47;;;-3.10;99.90;;;;;;4991042;28;20026;-78
2022/01/24 03:46:13;;;;;;;12.60;4.75;;;-1.90;99.90;;;;;;4992015;28;20499;-76
2022/01/24 03:48:46;;;;;;;11.63;6.35;;;-1.90;99.90;;;;;;4990698;28;20073;-78
2022/01/24 03:51:12;;;;;;;14.30;5.75;;;-1.80;99.90;;;;;;4974091;28;20031;-79
2022/01/24 03:53:39;;;;;;;18.27;7.45;;;-3.50;99.90;;;;;;4973616;28;20482;-77
2022/01/24 03:56:06;;;;;;;12.82;6.50;;;-3.30;99.90;;;;;;4991127;28;20060;-78
2022/01/24 03:58:32;;;;;;;14.50;6.55;;;-2.50;99.90;;;;;;4973686;28;20030;-78
2022/01/24 04:00:58;;;;;;;14.98;6.90;;;-1.70;99.90;;;;;;4990864;28;20444;-79
2022/01/24 04:03:25;;;;;;;12.55;6.35;;;-2.00;99.90;;;;;;4990134;28;20026;-76
2022/01/24 04:05:51;;;;;;;12.63;5.97;;;-2.40;99.90;;;;;;4990709;28;20019;-77
2022/01/24 04:08:17;;;;;;;16.40;7.65;;;-2.20;99.90;;;;;;4990805;28;20810;-77
2022/01/24 04:10:46;;;;;;;16.00;6.18;;;-2.10;99.90;;;;;;4990608;28;20033;-77
2022/01/24 04:13:36;;;;;;;12.52;6.07;;;-2.10;99.90;;;;;;4990653;28;20019;-77
2022/01/24 04:18:40;;;;;;;13.85;6.82;;;-2.50;99.90;;;;;;4991380;28;20101;-77
2022/01/24 04:23:55;;;;;;;12.82;6.55;;;-2.10;99.90;;;;;;4992022;28;20014;-78
2022/01/24 04:26:21;;;;;;;15.30;7.18;;;-3.20;99.90;;;;;;4973404;28;20619;-78
2022/01/24 04:28:46;;;;;;;15.48;6.30;;;-2.00;99.90;;;;;;4990773;28;20317;-75
2022/01/24 04:31:12;;;;;;;16.98;6.30;;;-3.10;99.90;;;;;;4990746;28;20381;-77
2022/01/24 04:33:38;;;;;;;18.52;7.13;;;-3.50;99.90;;;;;;4990557;28;20026;-77
2022/01/24 04:36:04;;;;;;;14.38;6.70;;;-3.50;99.90;;;;;;4990815;28;20081;-78
2022/01/24 04:38:29;;;;;;;19.08;7.13;;;-3.50;99.90;;;;;;4990764;28;20080;-77
2022/01/24 04:41:01;;;;;;;17.35;8.55;;;-3.00;99.90;;;;;;4990857;28;20093;-77
2022/01/24 04:51:31;;;;;;;21.52;9.25;;;-2.00;99.90;;;;;;4990201;28;20164;-77
2022/01/24 04:56:31;;;;;;;42.85;15.05;;;-1.60;99.90;;;;;;4989960;28;20092;-78
2022/01/24 04:58:57;;;;;;;50.88;19.30;;;-2.90;99.90;;;;;;4972282;28;20027;-77
2022/01/24 05:01:23;;;;;;;42.17;18.08;;;-2.40;99.90;;;;;;4989601;28;20033;-78
2022/01/24 05:03:48;;;;;;;40.20;15.00;;;-2.50;99.90;;;;;;4972790;28;20052;-77
2022/01/24 05:06:14;;;;;;;34.80;13.70;;;-1.90;99.90;;;;;;4990849;28;20018;-77
2022/01/24 05:08:40;;;;;;;30.25;11.23;;;-3.30;99.90;;;;;;4990472;28;20027;-80
2022/01/24 05:11:10;;;;;;;33.58;12.40;;;-2.50;99.90;;;;;;4990607;28;20598;-77
2022/01/24 05:24:30;;;;;;;28.90;12.13;;;-3.50;99.90;;;;;;4989638;28;20483;-78
2022/01/24 05:26:58;;;;;;;29.95;11.55;;;-3.50;99.90;;;;;;4989605;28;20274;-77
2022/01/24 05:29:24;;;;;;;28.17;9.85;;;-3.50;99.90;;;;;;4989585;28;20026;-77
2022/01/24 05:31:49;;;;;;;24.95;11.63;;;-2.60;99.90;;;;;;4989564;28;20486;-77
2022/01/24 05:34:15;;;;;;;29.25;12.68;;;-2.20;99.90;;;;;;4989139;28;20065;-79
2022/01/24 05:36:41;;;;;;;21.83;8.70;;;-2.20;99.90;;;;;;4972340;28;20057;-77
2022/01/24 05:39:06;;;;;;;19.95;8.82;;;-2.40;99.90;;;;;;4993063;28;20022;-77
2022/01/24 05:41:34;;;;;;;21.50;8.13;;;-1.70;99.90;;;;;;4976038;28;20085;-77
2022/01/24 05:44:00;;;;;;;30.25;10.70;;;-1.90;99.90;;;;;;4975877;28;20030;-77
2022/01/24 05:46:25;;;;;;;26.10;9.48;;;-4.30;99.90;;;;;;4991706;28;20029;-76
2022/01/24 05:48:52;;;;;;;25.80;9.40;;;-4.40;99.90;;;;;;4993164;28;20014;-77
2022/01/24 05:51:20;;;;;;;39.03;14.40;;;-4.40;99.90;;;;;;4993301;28;20612;-79
2022/01/24 05:53:45;;;;;;;55.33;18.55;;;-4.30;99.90;;;;;;4993488;28;20033;-77
2022/01/24 05:56:11;;;;;;;43.30;16.63;;;-4.20;99.90;;;;;;4993079;28;20026;-76
2022/01/24 05:58:37;;;;;;;34.38;15.55;;;-4.20;99.90;;;;;;4993113;28;20065;-77
2022/01/24 06:01:03;;;;;;;36.53;13.30;;;-4.30;99.90;;;;;;4992929;28;20034;-78
2022/01/24 06:03:29;;;;;;;35.72;13.75;;;-4.10;99.90;;;;;;4992619;28;20030;-79
2022/01/24 06:05:55;;;;;;;29.27;12.40;;;-4.50;99.90;;;;;;4991656;28;20026;-78
2022/01/24 06:08:20;;;;;;;31.77;11.73;;;-4.50;99.90;;;;;;4995092;28;20029;-78
2022/01/24 06:10:47;;;;;;;31.10;10.70;;;-4.50;99.90;;;;;;4994916;28;20022;-77
2022/01/24 06:13:13;;;;;;;26.52;10.20;;;-4.50;99.90;;;;;;4992853;28;20014;-80
2022/01/24 06:15:41;;;;;;;23.98;10.60;;;-3.40;99.90;;;;;;4993317;28;20160;-77
2022/01/24 06:18:07;;;;;;;30.27;10.98;;;-4.50;99.90;;;;;;4974892;28;20041;-77
2022/01/24 06:20:32;;;;;;;29.38;10.55;;;-4.50;99.90;;;;;;4995967;28;20109;-77
2022/01/24 06:22:58;;;;;;;28.40;10.60;;;-2.50;99.90;;;;;;4995627;28;20054;-78
2022/01/24 06:25:25;;;;;;;35.60;12.82;;;-4.40;99.90;;;;;;4997755;28;20037;-79
2022/01/24 06:27:52;;;;;;;31.13;12.60;;;-4.30;99.90;;;;;;4982070;28;20038;-79
2022/01/24 06:30:18;;;;;;;30.23;10.82;;;-4.50;99.90;;;;;;4999047;28;20033;-77
2022/01/24 06:32:43;;;;;;;31.75;12.68;;;-4.60;99.90;;;;;;4996797;28;20030;-77
2022/01/24 06:35:11;;;;;;;27.90;11.00;;;-4.70;99.90;;;;;;4996927;28;20526;-75
2022/01/24 06:37:37;;;;;;;24.98;11.52;;;-4.80;99.90;;;;;;4999240;28;20046;-76
2022/01/24 06:40:08;;;;;;;25.48;10.82;;;-4.70;99.90;;;;;;5002258;28;20022;-76
2022/01/24 06:42:35;;;;;;;34.03;11.68;;;-4.60;99.90;;;;;;4993976;28;20062;-79
2022/01/24 06:45:00;;;;;;;28.90;10.90;;;-3.10;99.90;;;;;;4999684;28;20110;-78
2022/01/24 06:47:26;;;;;;;43.92;13.98;;;-4.60;99.90;;;;;;4998897;28;20322;-76
2022/01/24 06:49:52;;;;;;;33.30;13.13;;;-4.70;99.90;;;;;;4999853;28;20027;-77
2022/01/24 06:52:18;;;;;;;27.98;10.25;;;-4.70;99.90;;;;;;4983213;28;20200;-76
2022/01/24 06:54:44;;;;;;;30.20;12.02;;;-4.70;99.90;;;;;;4983636;28;20034;-76
2022/01/24 06:57:12;;;;;;;30.65;11.55;;;-4.70;99.90;;;;;;4983228;28;20250;-75
2022/01/24 06:59:40;;;;;;;31.25;9.65;;;-4.80;99.90;;;;;;5000608;28;20030;-76
2022/01/24 07:02:06;;;;;;;33.15;11.65;;;-4.70;99.90;;;;;;4983329;28;20026;-76
2022/01/24 07:04:32;;;;;;;34.55;12.52;;;-4.60;99.90;;;;;;5000937;28;20018;-76
2022/01/24 07:06:57;;;;;;;33.47;13.20;;;-4.40;99.90;;;;;;4983821;28;20040;-78
2022/01/24 07:09:23;;;;;;;41.28;14.13;;;-4.30;99.90;;;;;;4983652;28;20026;-76
2022/01/24 07:11:51;;;;;;;28.52;11.88;;;-4.30;99.90;;;;;;5001058;28;20102;-74
2022/01/24 07:14:17;;;;;;;29.63;9.52;;;-4.30;99.90;;;;;;5001123;28;20046;-77
2022/01/24 07:19:34;;;;;;;21.17;8.60;;;-4.10;99.90;;;;;;4970493;28;20031;-80
2022/01/24 07:22:03;;;;;;;26.58;10.63;;;-4.10;99.90;;;;;;5001022;28;20060;-80
2022/01/24 07:24:29;;;;;;;24.50;9.65;;;-3.90;99.90;;;;;;4982626;28;20029;-84
2022/01/24 07:26:55;;;;;;;26.88;10.25;;;-3.90;99.90;;;;;;4982890;28;20053;-81
2022/01/24 07:29:22;;;;;;;19.60;8.35;;;-4.00;99.90;;;;;;5001721;28;20094;-82
2022/01/24 07:31:47;;;;;;;24.35;9.63;;;-1.60;99.90;;;;;;4999814;28;20023;-82
2022/01/24 07:34:14;;;;;;;23.77;10.02;;;-2.70;99.90;;;;;;4980817;28;20030;-81
2022/01/24 07:36:40;;;;;;;23.67;8.95;;;-4.00;99.90;;;;;;5000562;28;20062;-81
2022/01/24 07:39:05;;;;;;;27.42;8.90;;;-4.00;99.90;;;;;;4982480;28;20026;-81
2022/01/24 07:41:33;;;;;;;19.17;8.02;;;-1.90;99.90;;;;;;4981604;28;20105;-81
2022/01/24 07:43:59;;;;;;;27.15;10.13;;;-2.20;99.90;;;;;;4999705;28;20358;-85
2022/01/24 07:46:25;;;;;;;25.00;8.55;;;-3.80;99.90;;;;;;4983661;28;20414;-87
2022/01/24 07:48:51;;;;;;;20.92;7.82;;;-3.80;99.90;;;;;;5002076;28;20014;-76
2022/01/24 07:51:16;;;;;;;25.05;11.40;;;-3.70;99.90;;;;;;4979360;28;20030;-76
2022/01/24 07:53:43;;;;;;;29.45;11.05;;;-3.10;99.90;;;;;;4989922;28;20344;-79
2022/01/24 07:56:10;;;;;;;27.88;9.95;;;-3.50;99.90;;;;;;4988852;28;20514;-80
2022/01/24 07:58:36;;;;;;;29.00;11.57;;;-2.20;99.90;;;;;;4990617;28;20112;-77
2022/01/24 08:01:02;;;;;;;25.25;10.98;;;-1.90;99.90;;;;;;4988165;28;20046;-77
2022/01/24 08:03:28;;;;;;;24.42;8.90;;;-2.80;99.90;;;;;;4991019;28;20064;-80
2022/01/24 08:05:54;;;;;;;25.00;11.02;;;-2.30;99.90;;;;;;4977916;28;20030;-79
2022/01/24 08:08:22;;;;;;;27.13;10.90;;;-1.50;99.90;;;;;;4970364;28;20023;-78
2022/01/24 08:10:48;;;;;;;33.10;14.38;;;-3.20;99.90;;;;;;4992549;28;20100;-81
2022/01/24 08:13:14;;;;;;;35.53;13.40;;;-3.10;99.90;;;;;;4972121;28;20030;-80
2022/01/24 08:15:40;;;;;;;34.78;15.07;;;-2.10;99.90;;;;;;4988033;28;20046;-81
2022/01/24 08:18:06;;;;;;;38.25;14.57;;;-2.90;99.90;;;;;;4979402;28;20118;-81
2022/01/24 08:20:33;;;;;;;36.88;13.05;;;-2.40;99.90;;;;;;4968530;28;20057;-82
2022/01/24 08:22:59;;;;;;;35.17;14.00;;;-2.40;99.90;;;;;;4987946;28;20028;-81
2022/01/24 08:25:26;;;;;;;38.15;13.45;;;-2.20;99.90;;;;;;4985815;28;20117;-78
2022/01/24 08:28:05;;;;;;;37.20;16.40;;;-2.10;99.90;;;;;;4999836;28;20026;-78
2022/01/24 08:30:33;;;;;;;36.22;15.40;;;-2.00;99.90;;;;;;5007631;28;20499;-77
2022/01/24 08:32:59;;;;;;;34.78;12.13;;;-1.80;99.90;;;;;;4970624;28;20062;-81
2022/01/24 08:35:24;;;;;;;21.92;9.40;;;-1.70;99.90;;;;;;4968181;28;20062;-80
2022/01/24 08:37:51;;;;;;;27.10;10.15;;;-0.90;99.90;;;;;;4967589;28;20065;-81
2022/01/24 08:40:23;;;;;;;28.00;12.07;;;-0.40;99.90;;;;;;4986191;28;20505;-79
2022/01/24 08:43:03;;;;;;;26.08;10.43;;;-0.60;99.90;;;;;;4988189;28;20033;-80
2022/01/24 08:45:50;;;;;;;22.63;9.50;;;-1.20;99.90;;;;;;4970429;28;20041;-81
2022/01/24 08:48:24;;;;;;;22.58;9.88;;;-1.20;99.90;;;;;;4984701;28;20226;-76
2022/01/24 08:50:54;;;;;;;22.50;10.32;;;-1.00;99.90;;;;;;4972953;28;20061;-81
2022/01/24 08:53:20;;;;;;;23.30;10.82;;;-0.30;99.90;;;;;;4999345;28;20018;-80
2022/01/24 08:55:46;;;;;;;20.45;8.52;;;-0.70;99.90;;;;;;4984466;28;20048;-80
2022/01/24 08:58:15;;;;;;;26.75;10.48;;;-0.90;99.90;;;;;;4988839;28;20023;-81
2022/01/24 09:00:46;;;;;;;22.55;11.32;;;-0.10;99.90;;;;;;4998590;28;20534;-81
2022/01/24 09:03:13;;;;;;;23.63;10.63;;;-0.40;99.90;;;;;;4983840;28;20077;-83
2022/01/24 09:05:40;;;;;;;28.38;11.63;;;0.30;99.90;;;;;;4981165;28;20025;-85
2022/01/24 09:08:06;;;;;;;24.02;10.32;;;0.70;99.90;;;;;;4971607;28;20053;-81
2022/01/24 09:10:34;;;;;;;18.90;8.77;;;-0.10;99.90;;;;;;4965933;28;20126;-80
2022/01/24 09:12:59;;;;;;;18.90;9.32;;;1.00;99.90;;;;;;4984876;28;20023;-79
2022/01/24 09:15:25;;;;;;;20.88;9.10;;;1.10;99.90;;;;;;4985115;28;20510;-80
2022/01/24 09:17:51;;;;;;;32.10;10.30;;;0.10;99.90;;;;;;4977897;28;20026;-80
2022/01/24 09:20:17;;;;;;;20.00;8.07;;;0.40;99.90;;;;;;4988979;28;20077;-80
2022/01/24 09:22:45;;;;;;;22.25;9.43;;;0.40;99.90;;;;;;4976048;28;20543;-79
2022/01/24 09:25:12;;;;;;;42.70;14.18;;;1.40;99.90;;;;;;4971794;28;20027;-80
2022/01/24 09:27:39;;;;;;;29.20;10.10;;;0.50;99.90;;;;;;4971503;28;20026;-79
2022/01/24 09:30:07;;;;;;;21.85;8.43;;;0.50;99.90;;;;;;4988667;28;20072;-81
2022/01/24 09:32:34;;;;;;;28.75;9.57;;;0.60;99.90;;;;;;4973086;28;20025;-86
2022/01/24 09:34:59;;;;;;;25.05;10.48;;;0.70;99.90;;;;;;4973833;28;20541;-79
2022/01/24 09:37:25;;;;;;;27.63;10.60;;;0.70;99.90;;;;;;4993371;28;20058;-79
2022/01/24 09:39:51;;;;;;;27.02;9.43;;;0.80;99.90;;;;;;4979639;28;20030;-79
2022/01/24 09:42:17;;;;;;;25.40;10.75;;;2.00;99.90;;;;;;4975643;28;20069;-81
2022/01/24 09:44:45;;;;;;;24.02;9.18;;;0.90;99.90;;;;;;4991442;28;20060;-83
2022/01/24 09:47:15;;;;;;;24.73;10.27;;;1.00;99.90;;;;;;4973824;28;20026;-83
2022/01/24 09:49:42;;;;;;;28.33;10.75;;;1.10;99.90;;;;;;4974154;28;20037;-79
2022/01/24 09:52:07;;;;;;;25.38;9.25;;;1.10;99.90;;;;;;4993099;28;20029;-79
2022/01/24 09:54:33;;;;;;;29.05;10.20;;;1.10;99.90;;;;;;4976149;28;20022;-85
2022/01/24 09:56:59;;;;;;;24.77;8.30;;;1.20;99.90;;;;;;4999749;28;20058;-83
2022/01/24 09:59:25;;;;;;;23.60;9.63;;;1.40;99.90;;;;;;4991729;28;20113;-91
2022/01/24 10:01:50;;;;;;;18.77;8.82;;;1.40;99.90;;;;;;4992413;28;20026;-77
2022/01/24 10:04:19;;;;;;;18.98;8.48;;;1.40;99.90;;;;;;5007422;28;20077;-77
2022/01/24 10:07:08;;;;;;;23.40;8.00;;;1.40;99.90;;;;;;4976508;28;20399;-86
2022/01/24 10:09:43;;;;;;;24.23;9.20;;;1.50;99.90;;;;;;4992477;28;20125;-86
2022/01/24 10:17:34;;;;;;;17.98;6.93;;;1.70;99.90;;;;;;5009022;28;19924;-78
2022/01/24 10:20:27;;;;;;;17.85;7.60;;;1.70;99.90;;;;;;5010284;28;20033;-76
2022/01/24 10:23:10;;;;;;;21.70;9.18;;;1.90;99.90;;;;;;5011681;28;20003;-77
2022/01/24 10:26:06;;;;;;;24.17;9.55;;;1.90;99.90;;;;;;4995436;28;20094;-78
2022/01/24 10:28:38;;;;;;;22.70;8.13;;;1.90;99.90;;;;;;4988319;28;20050;-89
2022/01/24 10:31:15;;;;;;;21.45;9.38;;;2.10;99.90;;;;;;4990369;28;20122;-86
2022/01/24 10:34:50;;;;;;;19.13;7.85;;;2.10;99.90;;;;;;4996227;28;20022;-77
2022/01/24 10:36:53;;;;;;;25.20;8.63;;;2.10;99.90;;;;;;4983922;28;20170;-80
2022/01/24 10:44:57;;;;;;;17.48;7.32;;;2.20;99.90;;;;;;5002344;28;20401;-77
2022/01/24 10:47:29;;;;;;;23.73;8.50;;;2.30;99.90;;;;;;5002791;28;20053;-76
2022/01/24 10:49:56;;;;;;;19.60;8.50;;;2.30;99.90;;;;;;5005006;28;20038;-75
2022/01/24 10:52:25;;;;;;;16.50;7.95;;;2.40;99.90;;;;;;4989055;28;20080;-76
2022/01/24 10:55:09;;;;;;;20.37;7.73;;;2.50;99.90;;;;;;4990785;28;20462;-89
2022/01/24 10:57:34;;;;;;;16.80;7.68;;;2.50;99.90;;;;;;4985247;28;20038;-76
2022/01/24 11:00:06;;;;;;;18.23;8.25;;;2.40;99.90;;;;;;4992614;28;20019;-75
2022/01/24 11:02:40;;;;;;;20.55;8.18;;;2.40;99.90;;;;;;4975786;28;20154;-75
2022/01/24 11:05:14;;;;;;;19.27;7.85;;;2.50;99.90;;;;;;4993853;28;20018;-75
2022/01/24 11:07:48;;;;;;;15.38;7.20;;;2.50;99.90;;;;;;4999496;28;20172;-79
2022/01/24 11:10:24;;;;;;;20.88;8.23;;;2.60;99.90;;;;;;4997136;28;20407;-77
2022/01/24 11:12:51;;;;;;;19.20;7.80;;;2.70;99.90;;;;;;4993455;28;20509;-85
2022/01/24 11:15:19;;;;;;;14.15;6.32;;;2.80;99.90;;;;;;4983969;28;20027;-80
2022/01/24 11:17:46;;;;;;;16.35;7.60;;;2.90;99.90;;;;;;4983680;28;20091;-80
2022/01/24 11:20:17;;;;;;;22.17;9.63;;;2.90;99.90;;;;;;4977138;28;20030;-76
2022/01/24 11:22:57;;;;;;;21.70;8.93;;;2.90;99.90;;;;;;5003215;28;20066;-76
2022/01/24 11:25:24;;;;;;;18.92;10.38;;;2.90;99.90;;;;;;5007988;28;20101;-75
2022/01/24 11:27:50;;;;;;;15.98;7.95;;;3.00;99.90;;;;;;4996364;28;20378;-84
2022/01/24 11:30:22;;;;;;;31.05;10.77;;;3.00;99.90;;;;;;4990442;28;20452;-86
2022/01/24 11:32:58;;;;;;;20.15;8.07;;;3.00;99.90;;;;;;4986231;28;20038;-82
2022/01/24 11:35:33;;;;;;;23.65;9.25;;;3.00;99.90;;;;;;4965939;28;20029;-78
2022/01/24 11:37:59;;;;;;;22.42;9.55;;;3.10;99.90;;;;;;4990369;28;20046;-86
2022/01/24 11:40:27;;;;;;;32.28;11.82;;;3.10;99.90;;;;;;4997835;28;20029;-79
2022/01/24 11:42:53;;;;;;;22.20;9.48;;;3.20;99.90;;;;;;4992985;28;20320;-78
2022/01/24 11:45:55;;;;;;;23.63;9.23;;;5.10;99.90;;;;;;5003847;28;20102;-79
2022/01/24 11:48:23;;;;;;;20.50;8.63;;;3.40;99.90;;;;;;4998808;28;20441;-81
2022/01/24 11:50:56;;;;;;;19.13;8.40;;;3.50;99.90;;;;;;4982944;28;20018;-81
2022/01/24 11:53:24;;;;;;;19.80;7.78;;;3.50;99.90;;;;;;4981356;28;20324;-79
2022/01/24 11:55:50;;;;;;;21.98;10.45;;;3.50;99.90;;;;;;4977755;28;20266;-80
2022/01/24 11:58:42;;;;;;;25.27;10.95;;;3.40;99.90;;;;;;4976980;28;20022;-83
2022/01/24 12:01:13;;;;;;;22.20;9.07;;;2.20;99.90;;;;;;4992970;28;20585;-76
2022/01/24 12:03:50;;;;;;;20.70;9.73;;;3.50;99.90;;;;;;4991373;28;20030;-85
2022/01/24 12:06:19;;;;;;;17.88;8.43;;;3.50;99.90;;;;;;4978043;28;20023;-77
2022/01/24 12:08:47;;;;;;;25.48;9.82;;;3.40;99.90;;;;;;4995947;28;20022;-79
2022/01/24 12:11:18;;;;;;;21.80;9.63;;;3.30;99.90;;;;;;4995490;28;20085;-76
2022/01/24 12:13:47;;;;;;;24.00;10.15;;;3.40;99.90;;;;;;4977725;28;20118;-79
2022/01/24 12:16:14;;;;;;;24.98;9.20;;;3.50;99.90;;;;;;4971241;28;20041;-77
2022/01/24 12:18:40;;;;;;;24.45;8.80;;;3.50;99.90;;;;;;4979488;28;20027;-83
2022/01/24 12:21:12;;;;;;;17.58;8.02;;;3.50;99.90;;;;;;4968096;28;20057;-81
2022/01/24 12:23:37;;;;;;;20.00;9.00;;;3.40;99.90;;;;;;4989068;28;20134;-77
2022/01/24 12:26:25;;;;;;;21.92;9.10;;;3.40;99.90;;;;;;4976725;28;20073;-77
2022/01/24 12:29:05;;;;;;;18.98;7.68;;;3.50;99.90;;;;;;4987911;28;20367;-79
2022/01/24 12:31:36;;;;;;;20.95;8.75;;;3.50;99.90;;;;;;4990127;28;20027;-76
2022/01/24 12:34:05;;;;;;;19.35;8.55;;;3.50;99.90;;;;;;4993232;28;20014;-76
2022/01/24 12:36:46;;;;;;;18.07;8.23;;;3.60;99.90;;;;;;4996186;28;20681;-76
2022/01/24 12:39:25;;;;;;;23.92;9.32;;;3.60;99.90;;;;;;4995165;28;20026;-76
2022/01/24 12:42:01;;;;;;;19.42;8.77;;;3.70;99.90;;;;;;4990508;28;20405;-78
2022/01/24 12:47:03;;;;;;;22.50;9.88;;;3.70;99.90;;;;;;4992202;28;20030;-81
2022/01/24 12:49:29;;;;;;;16.40;7.65;;;3.60;99.90;;;;;;4984214;28;20026;-77
2022/01/24 12:51:58;;;;;;;21.50;8.02;;;3.60;99.90;;;;;;4980155;28;20518;-77
2022/01/24 12:54:35;;;;;;;17.52;7.30;;;3.70;99.90;;;;;;4984949;28;20399;-79
2022/01/24 12:57:08;;;;;;;20.85;8.25;;;3.80;99.90;;;;;;4976510;28;20039;-82
2022/01/24 12:59:35;;;;;;;24.83;10.25;;;3.80;99.90;;;;;;4984963;28;20154;-79
2022/01/24 13:02:04;;;;;;;16.77;7.10;;;3.80;99.90;;;;;;4989071;28;20030;-78
2022/01/24 13:04:56;;;;;;;20.60;9.03;;;3.80;99.90;;;;;;5003787;28;20028;-78
2022/01/24 13:07:22;;;;;;;17.20;7.15;;;3.80;99.90;;;;;;5003199;28;20069;-80
2022/01/24 13:10:10;;;;;;;17.80;7.55;;;3.90;99.90;;;;;;5007330;28;20010;-80
2022/01/24 13:12:37;;;;;;;18.77;7.97;;;4.10;99.90;;;;;;4978534;28;20178;-80
2022/01/24 13:15:06;;;;;;;17.38;7.82;;;4.60;99.90;;;;;;4993798;28;20100;-81
2022/01/24 13:22:56;;;;;;;21.92;8.07;;;6.20;99.90;;;;;;5000490;28;20026;-81
2022/01/24 13:25:41;;;;;;;20.23;8.65;;;6.40;99.90;;;;;;4994035;28;20021;-81
2022/01/24 13:28:23;;;;;;;16.92;7.97;;;7.00;99.60;;;;;;4998133;28;20030;-79
2022/01/24 13:31:03;;;;;;;19.13;8.75;;;7.30;98.00;;;;;;5001799;28;20106;-75
2022/01/24 13:33:31;;;;;;;25.08;10.18;;;7.20;96.30;;;;;;4988379;28;20113;-79
2022/01/24 13:36:05;;;;;;;26.05;8.85;;;7.30;95.70;;;;;;4996047;28;20058;-79
2022/01/24 13:38:37;;;;;;;18.45;8.80;;;7.30;95.10;;;;;;5003167;28;20085;-83
2022/01/24 13:41:11;;;;;;;19.27;8.35;;;7.20;94.40;;;;;;4975403;28;20023;-79
2022/01/24 13:43:45;;;;;;;13.43;6.32;;;7.00;94.80;;;;;;5002242;28;20037;-79
2022/01/24 13:46:14;;;;;;;15.80;7.45;;;6.90;95.30;;;;;;4993853;28;20037;-79
2022/01/24 13:48:50;;;;;;;19.15;8.38;;;7.00;94.60;;;;;;4993528;28;20019;-78
2022/01/24 13:51:19;;;;;;;17.42;6.70;;;6.90;95.00;;;;;;4986921;28;20034;-81
2022/01/24 13:53:47;;;;;;;19.30;7.43;;;7.00;94.50;;;;;;4986954;28;20160;-78
2022/01/24 13:56:21;;;;;;;17.90;8.32;;;6.80;95.10;;;;;;4982771;28;20069;-80
2022/01/24 13:59:05;;;;;;;20.50;8.27;;;6.70;95.00;;;;;;4992946;28;20049;-79
2022/01/24 14:01:31;;;;;;;19.45;8.65;;;6.80;95.60;;;;;;4995846;28;20174;-79
2022/01/24 14:03:58;;;;;;;15.27;8.20;;;7.30;94.50;;;;;;4995768;28;20034;-79
2022/01/24 14:06:25;;;;;;;19.42;8.82;;;7.50;93.50;;;;;;4998488;28;20096;-80
2022/01/24 14:09:11;;;;;;;17.38;8.63;;;7.70;93.00;;;;;;5000475;28;20185;-82
2022/01/24 14:11:46;;;;;;;16.20;7.35;;;9.30;93.20;;;;;;4998620;28;20034;-81
2022/01/24 14:14:25;;;;;;;17.08;8.27;;;6.60;93.70;;;;;;5004228;28;20023;-80
2022/01/24 14:17:09;;;;;;;18.27;7.40;;;6.70;94.80;;;;;;5002611;28;20422;-80
2022/01/24 14:19:36;;;;;;;16.45;8.07;;;6.90;94.10;;;;;;5001331;28;20468;-79
2022/01/24 14:22:03;;;;;;;17.63;7.65;;;6.70;94.50;;;;;;4990048;28;20026;-79
2022/01/24 14:24:54;;;;;;;17.60;7.45;;;6.50;94.70;;;;;;5000956;28;20026;-79
2022/01/24 14:27:41;;;;;;;21.08;9.43;;;6.60;95.20;;;;;;5001200;28;20030;-78
2022/01/24 14:30:11;;;;;;;19.25;9.00;;;6.80;93.80;;;;;;5003582;28;20621;-78
2022/01/24 14:32:39;;;;;;;18.38;8.13;;;6.60;94.60;;;;;;4999413;28;20386;-79
2022/01/24 14:35:06;;;;;;;18.63;9.40;;;6.60;94.70;;;;;;4974237;28;20259;-80
2022/01/24 14:37:54;;;;;;;24.65;9.50;;;6.80;94.40;;;;;;4992859;28;20050;-75
2022/01/24 14:40:48;;;;;;;15.32;7.28;;;6.90;93.30;;;;;;4999425;28;20483;-76
2022/01/24 14:46:09;;;;;;;18.23;7.47;;;6.80;94.50;;;;;;4998155;28;20101;-75